createdAt,value
2019-03-01T00:02:23.235Z,23.00
2019-03-01T00:05:23.863Z,17.97
2019-03-01T00:08:37.305Z,20.97
2019-03-01T00:11:25.329Z,26.47
2019-03-01T00:14:18.558Z,27.70
2019-03-01T00:17:22.544Z,31.97
2019-03-01T00:20:36.594Z,31.03
2019-03-01T00:23:29.132Z,24.53
2019-03-01T00:26:34.543Z,24.93
2019-03-01T00:29:45.867Z,20.60
2019-03-01T00:32:57.143Z,23.83
2019-03-01T00:36:08.684Z,24.67
2019-03-01T00:39:12.583Z,20.13
2019-03-01T00:41:57.606Z,22.40
2019-03-01T00:44:32.243Z,24.40
2019-03-01T00:47:02.793Z,23.57
2019-03-01T00:49:33.262Z,21.80
2019-03-01T00:52:03.617Z,23.27
2019-03-01T00:54:34.026Z,20.20
2019-03-01T00:57:04.576Z,24.50
2019-03-01T00:59:34.838Z,23.50
2019-03-01T01:02:05.972Z,20.13
2019-03-01T01:04:36.631Z,25.27
2019-03-01T01:07:06.964Z,21.60
2019-03-01T01:09:37.776Z,22.20
2019-03-01T01:12:08.478Z,18.47
2019-03-01T01:14:38.830Z,19.30
2019-03-01T01:17:09.916Z,19.97
2019-03-01T01:19:40.281Z,17.97
2019-03-01T01:22:10.666Z,17.97
2019-03-01T01:24:41.044Z,19.97
2019-03-01T01:27:11.828Z,17.27
2019-03-01T01:29:42.226Z,19.37
2019-03-01T01:32:12.895Z,17.47
2019-03-01T01:34:43.231Z,15.43
2019-03-01T01:37:13.848Z,14.87
2019-03-01T01:39:44.525Z,19.60
2019-03-01T01:42:15.129Z,21.33
2019-03-01T01:44:45.534Z,13.53
2019-03-01T01:47:16.286Z,17.77
2019-03-01T01:49:46.603Z,10.57
2019-03-01T01:52:16.881Z,20.13
2019-03-01T01:54:47.305Z,19.50
2019-03-01T01:57:17.624Z,14.57
2019-03-01T01:59:47.959Z,16.70
2019-03-01T02:02:18.637Z,16.00
2019-03-01T02:04:49.234Z,17.57
2019-03-01T02:07:21.116Z,12.30
2019-03-01T02:09:51.407Z,11.57
2019-03-01T02:12:21.711Z,14.90
2019-03-01T02:14:52.447Z,17.20
2019-03-01T02:17:22.877Z,16.57
2019-03-01T02:19:53.440Z,11.97
2019-03-01T02:22:23.955Z,13.53
2019-03-01T02:24:54.427Z,17.57
2019-03-01T02:27:29.857Z,12.10
2019-03-01T02:30:01.782Z,12.13
2019-03-01T02:32:36.147Z,12.43
2019-03-01T02:35:07.846Z,18.43
2019-03-01T02:37:38.128Z,10.90
2019-03-01T02:40:09.953Z,12.13
2019-03-01T02:42:40.668Z,14.67
2019-03-01T02:45:14.407Z,7.17
2019-03-01T02:47:44.679Z,11.10
2019-03-01T02:50:16.320Z,10.20
2019-03-01T02:52:47.084Z,6.73
2019-03-01T02:55:18.181Z,15.97
2019-03-01T02:57:49.136Z,8.80
2019-03-01T03:00:24.159Z,9.50
2019-03-01T03:02:54.491Z,9.70
2019-03-01T03:05:24.937Z,10.07
2019-03-01T03:07:57.488Z,14.33
2019-03-01T03:10:27.808Z,11.77
2019-03-01T03:13:00.729Z,12.80
2019-03-01T03:15:43.067Z,13.77
2019-03-01T03:18:13.659Z,10.70
2019-03-01T03:20:43.948Z,11.63
2019-03-01T03:23:14.652Z,13.23
2019-03-01T03:25:45.113Z,9.57
2019-03-01T03:28:15.416Z,9.33
2019-03-01T03:30:46.498Z,9.37
2019-03-01T03:33:17.239Z,11.40
2019-03-01T03:35:47.510Z,14.43
2019-03-01T03:38:18.405Z,11.07
2019-03-01T03:40:48.666Z,8.10
2019-03-01T03:43:19.367Z,15.23
2019-03-01T03:45:49.906Z,13.17
2019-03-01T03:48:20.199Z,14.43
2019-03-01T03:50:50.847Z,13.93
2019-03-01T03:53:22.359Z,18.50
2019-03-01T03:55:54.080Z,11.47
2019-03-01T03:58:24.795Z,11.90
2019-03-01T04:00:55.765Z,10.37
2019-03-01T04:03:26.036Z,11.20
2019-03-01T04:05:56.393Z,9.97
2019-03-01T04:08:27.039Z,18.07
2019-03-01T04:10:57.339Z,18.97
2019-03-01T04:13:27.849Z,10.13
2019-03-01T04:15:59.548Z,13.27
2019-03-01T04:18:30.262Z,12.27
2019-03-01T04:21:01.624Z,16.03
2019-03-01T04:23:32.221Z,15.43
2019-03-01T04:26:02.623Z,11.93
2019-03-01T04:28:33.293Z,8.97
2019-03-01T04:31:04.634Z,18.43
2019-03-01T04:33:34.928Z,21.43
2019-03-01T04:36:05.741Z,21.40
2019-03-01T04:38:36.018Z,21.83
2019-03-01T04:41:06.360Z,18.60
2019-03-01T04:43:38.359Z,22.03
2019-03-01T04:46:08.889Z,17.27
2019-03-01T04:48:39.604Z,18.60
2019-03-01T04:51:10.638Z,20.23
2019-03-01T04:53:41.009Z,13.90
2019-03-01T04:56:11.429Z,16.03
2019-03-01T04:58:41.717Z,15.53
2019-03-01T05:01:12.323Z,11.93
2019-03-01T05:03:42.986Z,14.17
2019-03-01T05:06:13.497Z,11.13
2019-03-01T05:08:43.957Z,28.87
2019-03-01T05:11:14.776Z,11.83
2019-03-01T05:13:45.405Z,17.67
2019-03-01T05:16:15.675Z,14.77
2019-03-01T05:18:46.201Z,18.90
2019-03-01T05:21:16.996Z,16.83
2019-03-01T05:23:47.350Z,12.23
2019-03-01T05:26:17.690Z,15.40
2019-03-01T05:28:48.405Z,16.47
2019-03-01T05:31:18.688Z,14.67
2019-03-01T05:33:49.417Z,14.53
2019-03-01T05:36:19.957Z,21.90
2019-03-01T05:38:50.313Z,16.67
2019-03-01T05:41:20.697Z,20.30
2019-03-01T05:43:51.393Z,17.57
2019-03-01T05:46:21.847Z,16.07
2019-03-01T05:48:52.540Z,16.07
2019-03-01T05:51:22.851Z,22.70
2019-03-01T05:53:53.208Z,15.27
2019-03-01T05:56:23.828Z,26.03
2019-03-01T05:59:15.356Z,16.83
2019-03-01T06:02:19.331Z,19.70
2019-03-01T06:04:53.378Z,14.47
2019-03-01T06:08:07.588Z,19.13
2019-03-01T06:11:23.683Z,14.57
2019-03-01T06:14:37.887Z,20.67
2019-03-01T06:17:40.285Z,18.10
2019-03-01T06:20:17.225Z,19.50
2019-03-01T06:23:21.948Z,18.80
2019-03-01T06:26:25.727Z,19.63
2019-03-01T06:29:23.849Z,19.47
2019-03-01T06:32:27.151Z,19.67
2019-03-01T06:35:47.047Z,19.17
2019-03-01T06:39:34.782Z,23.63
2019-03-01T06:42:34.097Z,17.30
2019-03-01T06:45:33.852Z,22.17
2019-03-01T06:48:04.636Z,18.93
2019-03-01T06:50:46.141Z,15.90
2019-03-01T06:53:16.478Z,17.37
2019-03-01T06:56:01.230Z,17.10
2019-03-01T06:58:34.753Z,19.40
2019-03-01T07:01:11.882Z,19.53
2019-03-01T07:03:42.604Z,21.87
2019-03-01T07:06:13.010Z,21.67
2019-03-01T07:08:43.586Z,19.70
2019-03-01T07:11:14.189Z,22.93
2019-03-01T07:13:44.476Z,24.20
2019-03-01T07:16:16.328Z,16.97
2019-03-01T07:18:47.027Z,19.73
2019-03-01T07:21:17.605Z,17.10
2019-03-01T07:23:47.979Z,19.07
2019-03-01T07:26:18.633Z,24.10
2019-03-01T07:28:48.934Z,16.10
2019-03-01T07:31:19.290Z,21.53
2019-03-01T07:33:49.739Z,21.03
2019-03-01T07:36:20.572Z,18.77
2019-03-01T07:38:51.015Z,22.87
2019-03-01T07:41:21.366Z,18.47
2019-03-01T07:43:52.084Z,20.43
2019-03-01T07:46:22.749Z,23.37
2019-03-01T07:48:53.064Z,18.40
2019-03-01T07:51:23.377Z,17.13
2019-03-01T07:53:54.021Z,31.20
2019-03-01T07:56:24.409Z,18.67
2019-03-01T07:58:57.550Z,23.23
2019-03-01T08:01:29.158Z,19.43
2019-03-01T08:03:59.595Z,18.83
2019-03-01T08:06:30.367Z,22.30
2019-03-01T08:09:00.640Z,23.17
2019-03-01T08:11:32.596Z,24.37
2019-03-01T08:14:03.181Z,19.60
2019-03-01T08:16:33.561Z,22.13
2019-03-01T08:19:04.560Z,22.07
2019-03-01T08:21:35.391Z,24.20
2019-03-01T08:24:07.670Z,21.33
2019-03-01T08:26:37.927Z,19.00
2019-03-01T08:29:08.637Z,20.03
2019-03-01T08:31:39.350Z,19.77
2019-03-01T08:34:09.763Z,23.17
2019-03-01T08:36:42.396Z,19.37
2019-03-01T08:39:12.379Z,23.07
2019-03-01T08:41:42.787Z,22.40
2019-03-01T08:44:13.134Z,24.70
2019-03-01T08:46:45.625Z,21.97
2019-03-01T08:49:16.221Z,21.30
2019-03-01T08:51:46.951Z,21.47
2019-03-01T08:54:17.342Z,30.80
2019-03-01T08:56:50.192Z,17.20
2019-03-01T08:59:20.600Z,23.13
2019-03-01T09:01:50.968Z,25.80
2019-03-01T09:04:21.715Z,20.50
2019-03-01T09:06:53.458Z,27.70
2019-03-01T09:09:24.990Z,26.60
2019-03-01T09:11:55.834Z,22.37
2019-03-01T09:14:27.287Z,22.23
2019-03-01T09:16:58.076Z,26.70
2019-03-01T09:19:28.406Z,25.77
2019-03-01T09:21:58.741Z,20.37
2019-03-01T09:24:30.037Z,19.30
2019-03-01T09:27:00.883Z,23.67
2019-03-01T09:29:41.031Z,22.60
2019-03-01T09:32:03.342Z,17.03
2019-03-01T09:34:33.814Z,20.83
2019-03-01T09:37:04.363Z,23.97
2019-03-01T09:39:34.764Z,19.50
2019-03-01T09:42:06.458Z,18.93
2019-03-01T09:44:39.252Z,19.40
2019-03-01T09:47:09.948Z,23.37
2019-03-01T09:49:40.393Z,19.03
2019-03-01T09:52:10.824Z,18.43
2019-03-01T09:54:41.103Z,20.00
2019-03-01T09:57:12.467Z,20.00
2019-03-01T09:59:44.486Z,22.83
2019-03-01T10:02:14.814Z,23.50
2019-03-01T10:04:45.172Z,20.83
2019-03-01T10:07:15.967Z,22.37
2019-03-01T10:09:46.540Z,19.57
2019-03-01T10:12:16.890Z,20.50
2019-03-01T10:14:47.473Z,17.77
2019-03-01T10:17:18.325Z,17.90
2019-03-01T10:19:48.745Z,18.77
2019-03-01T10:22:19.073Z,23.73
2019-03-01T10:24:49.478Z,22.00
2019-03-01T10:27:20.137Z,18.83
2019-03-01T10:29:50.498Z,21.53
2019-03-01T10:32:21.969Z,23.03
2019-03-01T10:34:52.727Z,19.70
2019-03-01T10:37:23.078Z,31.70
2019-03-01T10:39:55.582Z,18.87
2019-03-01T10:42:25.909Z,19.10
2019-03-01T10:44:56.550Z,22.83
2019-03-01T10:47:27.365Z,17.80
2019-03-01T10:49:57.671Z,18.70
2019-03-01T10:52:28.076Z,18.80
2019-03-01T10:54:58.815Z,31.60
2019-03-01T10:57:29.162Z,27.07
2019-03-01T10:59:59.466Z,21.30
2019-03-01T11:02:30.135Z,22.30
2019-03-01T11:05:00.631Z,23.90
2019-03-01T11:07:30.978Z,24.97
2019-03-01T11:10:01.584Z,21.73
2019-03-01T11:12:32.306Z,20.57
2019-03-01T11:15:02.602Z,24.70
2019-03-01T11:17:33.373Z,24.30
2019-03-01T11:20:03.872Z,20.80
2019-03-01T11:22:34.741Z,19.87
2019-03-01T11:25:05.903Z,18.90
2019-03-01T11:27:36.365Z,21.67
2019-03-01T11:30:07.755Z,21.97
2019-03-01T11:32:38.245Z,24.53
2019-03-01T11:35:08.885Z,17.20
2019-03-01T11:37:39.658Z,19.07
2019-03-01T11:40:12.899Z,21.67
2019-03-01T11:42:43.522Z,18.23
2019-03-01T11:45:14.135Z,20.63
2019-03-01T11:47:45.132Z,20.57
2019-03-01T11:50:17.979Z,21.07
2019-03-01T11:52:48.955Z,17.63
2019-03-01T11:55:19.265Z,20.13
2019-03-01T11:57:50.346Z,19.23
2019-03-01T12:00:21.512Z,20.93
2019-03-01T12:02:52.077Z,24.47
2019-03-01T12:05:22.727Z,20.93
2019-03-01T12:07:53.377Z,25.73
2019-03-01T12:10:25.859Z,19.20
2019-03-01T12:12:56.176Z,23.63
2019-03-01T12:15:26.924Z,20.40
2019-03-01T12:17:57.236Z,18.37
2019-03-01T12:20:27.916Z,19.37
2019-03-01T12:22:58.626Z,18.97
2019-03-01T12:25:29.111Z,19.93
2019-03-01T12:28:00.098Z,17.13
2019-03-01T12:30:30.399Z,21.50
2019-03-01T12:33:00.703Z,20.10
2019-03-01T12:35:31.470Z,21.93
2019-03-01T12:38:01.755Z,19.80
2019-03-01T12:40:32.049Z,19.20
2019-03-01T12:43:02.647Z,16.80
2019-03-01T12:45:33.190Z,16.80
2019-03-01T12:48:03.561Z,20.90
2019-03-01T12:50:34.435Z,15.77
2019-03-01T12:53:05.153Z,19.83
2019-03-01T12:55:35.632Z,17.10
2019-03-01T12:58:05.998Z,22.60
2019-03-01T13:00:36.419Z,21.27
2019-03-01T13:03:08.981Z,25.23
2019-03-01T13:05:39.740Z,18.87
2019-03-01T13:08:12.582Z,19.07
2019-03-01T13:10:42.468Z,17.33
2019-03-01T13:13:13.281Z,15.97
2019-03-01T13:15:45.379Z,16.97
2019-03-01T13:18:16.936Z,19.93
2019-03-01T13:20:48.068Z,14.80
2019-03-01T13:23:18.356Z,18.57
2019-03-01T13:25:48.822Z,15.47
2019-03-01T13:28:19.184Z,17.80
2019-03-01T13:30:50.054Z,22.57
2019-03-01T13:33:21.193Z,16.60
2019-03-01T13:35:51.780Z,17.03
2019-03-01T13:38:22.168Z,12.70
2019-03-01T13:40:54.246Z,15.10
2019-03-01T13:43:27.359Z,19.80
2019-03-01T13:45:58.070Z,14.37
2019-03-01T13:48:29.134Z,17.73
2019-03-01T13:50:59.486Z,15.23
2019-03-01T13:53:30.240Z,17.00
2019-03-01T13:56:02.116Z,15.10
2019-03-01T13:58:32.588Z,16.30
2019-03-01T14:01:02.868Z,19.33
2019-03-01T14:03:33.747Z,17.03
2019-03-01T14:06:04.087Z,16.53
2019-03-01T14:08:34.396Z,16.23
2019-03-01T14:11:04.805Z,14.07
2019-03-01T14:13:35.950Z,16.73
2019-03-01T14:16:06.262Z,16.07
2019-03-01T14:18:37.871Z,15.33
2019-03-01T14:21:08.459Z,16.00
2019-03-01T14:23:38.905Z,18.57
2019-03-01T14:26:09.652Z,12.50
2019-03-01T14:28:41.159Z,20.23
2019-03-01T14:31:12.357Z,15.20
2019-03-01T14:33:44.072Z,10.57
2019-03-01T14:36:14.351Z,11.57
2019-03-01T14:38:44.821Z,16.83
2019-03-01T14:41:15.356Z,13.63
2019-03-01T14:43:45.746Z,23.60
2019-03-01T14:46:17.591Z,14.73
2019-03-01T14:48:48.674Z,14.70
2019-03-01T14:51:19.009Z,12.90
2019-03-01T14:53:49.382Z,17.97
2019-03-01T14:56:24.071Z,15.40
2019-03-01T14:59:01.724Z,18.83
2019-03-01T15:02:24.776Z,17.37
2019-03-01T15:04:55.568Z,17.53
2019-03-01T15:07:27.876Z,22.33
2019-03-01T15:09:58.329Z,19.90
2019-03-01T15:12:28.661Z,17.30
2019-03-01T15:14:59.210Z,15.80
2019-03-01T15:17:29.913Z,23.43
2019-03-01T15:20:00.355Z,22.87
2019-03-01T15:22:30.837Z,22.20
2019-03-01T15:25:01.479Z,21.47
2019-03-01T15:27:33.030Z,19.13
2019-03-01T15:30:05.709Z,21.60
2019-03-01T15:32:36.231Z,18.97
2019-03-01T15:35:06.971Z,17.57
2019-03-01T15:37:37.314Z,23.00
2019-03-01T15:40:08.068Z,24.73
2019-03-01T15:42:38.455Z,22.47
2019-03-01T15:45:10.018Z,24.60
2019-03-01T15:47:40.533Z,26.63
2019-03-01T15:50:11.239Z,25.03
2019-03-01T15:52:41.870Z,25.60
2019-03-01T15:55:12.885Z,31.43
2019-03-01T15:57:43.396Z,30.07
2019-03-01T16:00:14.187Z,31.10
2019-03-01T16:02:44.732Z,31.93
2019-03-01T16:05:15.319Z,32.13
2019-03-01T16:07:45.647Z,38.30
2019-03-01T16:10:16.241Z,33.67
2019-03-01T16:12:47.003Z,43.13
2019-03-01T16:15:17.828Z,42.77
2019-03-01T16:17:48.138Z,32.20
2019-03-01T16:20:19.031Z,37.20
2019-03-01T16:22:51.012Z,32.63
2019-03-01T16:25:21.639Z,41.00
2019-03-01T16:27:54.275Z,40.47
2019-03-01T16:30:24.657Z,33.77
2019-03-01T16:32:55.037Z,30.30
2019-03-01T16:35:25.327Z,24.20
2019-03-01T16:37:57.916Z,25.43
2019-03-01T16:40:28.331Z,22.67
2019-03-01T16:42:59.038Z,26.77
2019-03-01T16:45:29.406Z,23.80
2019-03-01T16:48:00.911Z,28.17
2019-03-01T16:50:32.751Z,30.70
2019-03-01T16:53:04.601Z,25.90
2019-03-01T16:55:35.446Z,22.87
2019-03-01T16:58:07.246Z,25.07
2019-03-01T17:00:37.811Z,27.33
2019-03-01T17:03:08.545Z,31.63
2019-03-01T17:05:40.235Z,25.17
2019-03-01T17:08:10.870Z,39.90
2019-03-01T17:10:41.547Z,50.93
2019-03-01T17:13:12.226Z,62.27
2019-03-01T17:15:45.607Z,48.13
2019-03-01T17:18:15.268Z,36.47
2019-03-01T17:20:45.848Z,36.20
2019-03-01T17:23:16.200Z,34.33
2019-03-01T17:25:47.677Z,31.57
2019-03-01T17:28:22.705Z,45.80
2019-03-01T17:30:50.562Z,61.00
2019-03-01T17:33:22.412Z,47.87
2019-03-01T17:35:52.992Z,44.73
2019-03-01T17:38:23.306Z,42.27
2019-03-01T17:40:54.057Z,55.00
2019-03-01T17:43:25.974Z,60.90
2019-03-01T17:45:57.940Z,49.47
2019-03-01T17:48:29.610Z,45.67
2019-03-01T17:50:59.915Z,38.13
2019-03-01T17:53:30.296Z,53.83
2019-03-01T17:56:00.984Z,71.40
2019-03-01T17:58:31.292Z,83.57
2019-03-01T18:01:02.950Z,70.50
2019-03-01T18:03:35.319Z,56.63
2019-03-01T18:06:05.666Z,66.33
2019-03-01T18:08:39.681Z,57.50
2019-03-01T18:11:09.555Z,51.30
2019-03-01T18:13:40.928Z,51.23
2019-03-01T18:16:11.202Z,53.03
2019-03-01T18:18:42.565Z,48.43
2019-03-01T18:21:13.916Z,54.23
2019-03-01T18:23:44.305Z,49.37
2019-03-01T18:26:14.757Z,51.13
2019-03-01T18:28:45.276Z,44.10
2019-03-01T18:31:15.649Z,50.67
2019-03-01T18:33:46.328Z,35.63
2019-03-01T18:36:16.976Z,34.90
2019-03-01T18:38:47.251Z,46.20
2019-03-01T18:41:17.944Z,38.43
2019-03-01T18:43:49.336Z,43.17
2019-03-01T18:46:20.653Z,56.03
2019-03-01T18:48:51.220Z,61.47
2019-03-01T18:51:21.670Z,63.37
2019-03-01T18:53:52.280Z,61.33
2019-03-01T18:56:25.008Z,60.80
2019-03-01T18:58:54.671Z,48.93
2019-03-01T19:01:26.919Z,48.23
2019-03-01T19:03:59.019Z,62.37
2019-03-01T19:06:29.458Z,57.73
2019-03-01T19:09:00.090Z,61.13
2019-03-01T19:11:34.731Z,54.20
2019-03-01T19:14:03.741Z,58.03
2019-03-01T19:16:34.034Z,40.17
2019-03-01T19:19:06.045Z,37.83
2019-03-01T19:21:36.809Z,37.17
2019-03-01T19:24:08.216Z,35.00
2019-03-01T19:26:40.035Z,41.47
2019-03-01T19:29:10.727Z,43.90
2019-03-01T19:31:41.448Z,34.77
2019-03-01T19:34:13.107Z,41.23
2019-03-01T19:36:43.762Z,32.87
2019-03-01T19:39:22.675Z,45.10
2019-03-01T19:41:54.568Z,32.83
2019-03-01T19:44:25.743Z,40.07
2019-03-01T19:46:57.539Z,40.33
2019-03-01T19:49:28.145Z,51.97
2019-03-01T19:51:58.444Z,45.83
2019-03-01T19:54:28.803Z,65.83
2019-03-01T19:57:01.514Z,69.93
2019-03-01T19:59:31.546Z,66.03
2019-03-01T20:02:02.064Z,57.27
2019-03-01T20:04:32.441Z,58.13
2019-03-01T20:07:02.934Z,61.40
2019-03-01T20:09:36.562Z,54.27
2019-03-01T20:12:05.887Z,51.87
2019-03-01T20:14:36.374Z,46.50
2019-03-01T20:17:06.942Z,43.93
2019-03-01T20:19:38.177Z,52.87
2019-03-01T20:22:10.442Z,42.77
2019-03-01T20:24:41.275Z,46.40
2019-03-01T20:27:11.596Z,43.63
2019-03-01T20:29:42.162Z,36.30
2019-03-01T20:32:15.475Z,38.23
2019-03-01T20:34:44.812Z,41.07
2019-03-01T20:37:15.733Z,37.90
2019-03-01T20:39:47.442Z,42.93
2019-03-01T20:42:23.586Z,41.73
2019-03-01T20:44:53.088Z,43.63
2019-03-01T20:47:23.066Z,35.77
2019-03-01T20:49:54.507Z,37.60
2019-03-01T20:52:25.230Z,35.37
2019-03-01T20:54:57.737Z,36.97
2019-03-01T20:57:28.318Z,32.47
2019-03-01T20:59:59.003Z,35.13
2019-03-01T21:02:29.923Z,29.00
2019-03-01T21:05:00.697Z,29.70
2019-03-01T21:07:31.056Z,32.27
2019-03-01T21:10:01.736Z,33.30
2019-03-01T21:12:33.503Z,36.57
2019-03-01T21:15:04.315Z,31.67
2019-03-01T21:17:34.727Z,31.57
2019-03-01T21:20:06.694Z,33.70
2019-03-01T21:22:39.803Z,34.03
2019-03-01T21:25:10.247Z,34.57
2019-03-01T21:27:40.876Z,38.60
2019-03-01T21:30:13.827Z,31.67
2019-03-01T21:32:47.042Z,37.80
2019-03-01T21:35:16.832Z,29.57
2019-03-01T21:37:47.230Z,31.77
2019-03-01T21:40:17.937Z,32.77
2019-03-01T21:42:48.282Z,33.93
2019-03-01T21:45:21.507Z,35.97
2019-03-01T21:47:51.793Z,35.73
2019-03-01T21:50:22.179Z,39.90
2019-03-01T21:52:52.454Z,35.33
2019-03-01T21:55:24.985Z,31.83
2019-03-01T21:57:56.006Z,28.07
2019-03-01T22:00:29.561Z,28.63
2019-03-01T22:02:58.620Z,32.43
2019-03-01T22:05:28.938Z,35.93
2019-03-01T22:07:59.687Z,36.27
2019-03-01T22:10:31.610Z,35.63
2019-03-01T22:13:02.218Z,36.90
2019-03-01T22:15:32.848Z,36.47
2019-03-01T22:18:03.223Z,31.37
2019-03-01T22:20:33.537Z,33.70
2019-03-01T22:23:03.920Z,30.30
2019-03-01T22:25:34.616Z,38.43
2019-03-01T22:28:06.468Z,29.50
2019-03-01T22:30:37.282Z,27.53
2019-03-01T22:33:07.955Z,35.17
2019-03-01T22:35:40.548Z,31.60
2019-03-01T22:38:10.532Z,29.77
2019-03-01T22:40:41.076Z,32.03
2019-03-01T22:43:11.479Z,34.90
2019-03-01T22:45:41.789Z,32.07
2019-03-01T22:48:12.504Z,30.20
2019-03-01T22:50:43.491Z,32.83
2019-03-01T22:53:13.807Z,34.60
2019-03-01T22:55:44.493Z,28.90
2019-03-01T22:58:14.873Z,34.40
2019-03-01T23:01:23.806Z,31.87
2019-03-01T23:04:00.198Z,37.80
2019-03-01T23:06:30.864Z,29.80
2019-03-01T23:09:01.184Z,31.53
2019-03-01T23:11:33.677Z,32.80
2019-03-01T23:14:04.030Z,36.70
2019-03-01T23:16:34.608Z,36.23
2019-03-01T23:19:05.273Z,37.83
2019-03-01T23:21:36.813Z,37.90
2019-03-01T23:24:07.498Z,37.00
2019-03-01T23:26:38.403Z,41.53
2019-03-01T23:29:08.844Z,37.13
2019-03-01T23:31:39.747Z,40.03
2019-03-01T23:34:11.550Z,33.87
2019-03-01T23:36:41.868Z,37.40
2019-03-01T23:39:12.370Z,37.33
2019-03-01T23:41:46.320Z,35.20
2019-03-01T23:44:17.059Z,36.73
2019-03-01T23:46:47.687Z,35.87
2019-03-01T23:49:20.648Z,33.13
2019-03-01T23:51:50.184Z,34.83
2019-03-01T23:54:20.720Z,34.23
2019-03-01T23:56:51.152Z,31.67
2019-03-01T23:59:23.763Z,30.90
